createdAt,value
2018-09-25T00:02:52.823Z,5.39
2018-09-25T00:06:02.151Z,5.59
2018-09-25T00:09:14.315Z,5.59
2018-09-25T00:12:23.654Z,5.54
2018-09-25T00:15:32.842Z,5.53
2018-09-25T00:18:42.372Z,5.52
2018-09-25T00:21:51.589Z,5.63
2018-09-25T00:25:01.130Z,5.70
2018-09-25T00:28:10.935Z,5.63
2018-09-25T00:31:20.236Z,5.38
2018-09-25T00:34:29.463Z,5.40
2018-09-25T00:37:38.679Z,5.37
2018-09-25T00:40:48.041Z,5.47
2018-09-25T00:43:57.305Z,5.54
2018-09-25T00:47:06.934Z,5.49
2018-09-25T00:50:16.452Z,5.36
2018-09-25T00:53:25.810Z,5.27
2018-09-25T00:56:35.066Z,5.28
2018-09-25T00:59:44.786Z,5.24
2018-09-25T01:02:54.194Z,5.19
2018-09-25T01:06:03.520Z,5.23
2018-09-25T01:09:13.802Z,5.33
2018-09-25T01:12:22.963Z,5.29
2018-09-25T01:15:32.622Z,5.26
2018-09-25T01:18:41.986Z,5.31
2018-09-25T01:21:51.372Z,5.33
2018-09-25T01:25:00.730Z,5.23
2018-09-25T01:28:10.322Z,5.14
2018-09-25T01:31:19.730Z,5.16
2018-09-25T01:34:28.986Z,5.21
2018-09-25T01:37:38.199Z,5.22
2018-09-25T01:40:47.407Z,5.21
2018-09-25T01:43:56.755Z,5.22
2018-09-25T01:47:06.075Z,5.26
2018-09-25T01:50:15.449Z,5.24
2018-09-25T01:53:24.703Z,5.14
2018-09-25T01:56:33.958Z,5.23
2018-09-25T01:59:43.223Z,5.22
2018-09-25T02:02:52.494Z,5.31
2018-09-25T02:06:01.948Z,5.36
2018-09-25T02:09:11.737Z,5.27
2018-09-25T02:12:21.076Z,5.05
2018-09-25T02:15:30.586Z,5.01
2018-09-25T02:18:39.815Z,4.93
2018-09-25T02:21:49.211Z,4.95
2018-09-25T02:24:58.558Z,4.99
2018-09-25T02:28:07.819Z,5.04
2018-09-25T02:31:17.029Z,4.97
2018-09-25T02:34:26.557Z,4.96
2018-09-25T02:37:35.830Z,4.93
2018-09-25T02:40:44.993Z,4.91
2018-09-25T02:43:54.264Z,4.97
2018-09-25T02:47:03.473Z,4.89
2018-09-25T02:50:12.663Z,4.84
2018-09-25T02:53:21.958Z,4.95
2018-09-25T02:56:31.236Z,4.98
2018-09-25T02:59:40.399Z,5.13
2018-09-25T03:02:49.655Z,5.13
2018-09-25T03:05:59.510Z,5.10
2018-09-25T03:09:08.826Z,5.12
2018-09-25T03:12:18.147Z,4.91
2018-09-25T03:15:27.317Z,4.92
2018-09-25T03:18:36.483Z,4.88
2018-09-25T03:21:45.746Z,4.73
2018-09-25T03:24:54.967Z,4.74
2018-09-25T03:28:04.154Z,4.61
2018-09-25T03:31:13.490Z,4.70
2018-09-25T03:34:22.777Z,4.67
2018-09-25T03:37:32.023Z,4.67
2018-09-25T03:40:41.436Z,4.66
2018-09-25T03:43:51.025Z,4.68
2018-09-25T03:47:00.599Z,4.64
2018-09-25T03:50:10.161Z,4.67
2018-09-25T03:53:19.433Z,4.64
2018-09-25T03:56:28.584Z,4.74
2018-09-25T03:59:37.804Z,4.74
2018-09-25T04:02:47.272Z,4.66
2018-09-25T04:05:56.676Z,4.67
2018-09-25T04:09:06.423Z,4.78
2018-09-25T04:12:15.615Z,4.66
2018-09-25T04:15:25.153Z,4.58
2018-09-25T04:18:34.706Z,4.82
2018-09-25T04:21:44.011Z,4.81
2018-09-25T04:24:53.304Z,4.87
2018-09-25T04:28:02.636Z,4.97
2018-09-25T04:31:12.203Z,5.01
2018-09-25T04:34:21.618Z,5.07
2018-09-25T04:37:31.033Z,5.16
2018-09-25T04:40:40.383Z,5.05
2018-09-25T04:43:50.114Z,5.15
2018-09-25T04:46:59.634Z,5.18
2018-09-25T04:50:08.813Z,5.12
2018-09-25T04:53:18.273Z,5.13
2018-09-25T04:56:27.739Z,5.17
2018-09-25T04:59:36.934Z,5.15
2018-09-25T05:02:46.376Z,5.27
2018-09-25T05:05:55.758Z,5.14
2018-09-25T05:09:05.307Z,5.17
2018-09-25T05:12:14.801Z,5.15
2018-09-25T05:15:24.232Z,5.16
2018-09-25T05:18:33.579Z,5.12
2018-09-25T05:21:42.777Z,5.12
2018-09-25T05:24:52.053Z,5.20
2018-09-25T05:28:01.449Z,5.23
2018-09-25T05:31:11.030Z,5.14
2018-09-25T05:34:20.371Z,5.22
2018-09-25T05:37:29.912Z,5.25
2018-09-25T05:40:39.327Z,5.33
2018-09-25T05:43:48.638Z,5.36
2018-09-25T05:46:58.006Z,5.31
2018-09-25T05:50:07.259Z,5.31
2018-09-25T05:53:16.466Z,5.24
2018-09-25T05:56:25.768Z,5.13
2018-09-25T05:59:35.126Z,5.14
2018-09-25T06:02:44.426Z,5.17
2018-09-25T06:05:53.652Z,5.19
2018-09-25T06:09:03.088Z,5.19
2018-09-25T06:12:12.272Z,5.15
2018-09-25T06:15:21.938Z,5.18
2018-09-25T06:18:31.103Z,5.19
2018-09-25T06:21:40.903Z,5.20
2018-09-25T06:24:50.122Z,5.22
2018-09-25T06:27:59.347Z,5.35
2018-09-25T06:31:08.862Z,5.39
2018-09-25T06:34:18.460Z,5.53
2018-09-25T06:37:27.887Z,5.50
2018-09-25T06:40:37.260Z,5.52
2018-09-25T06:43:46.508Z,5.57
2018-09-25T06:46:55.802Z,5.63
2018-09-25T06:50:05.063Z,5.64
2018-09-25T06:53:14.492Z,5.80
2018-09-25T06:56:23.715Z,5.84
2018-09-25T06:59:33.287Z,5.93
2018-09-25T07:02:42.539Z,6.01
2018-09-25T07:05:51.944Z,6.16
2018-09-25T07:09:01.139Z,6.18
2018-09-25T07:12:10.397Z,6.27
2018-09-25T07:15:19.756Z,6.37
2018-09-25T07:18:29.278Z,6.49
2018-09-25T07:21:38.438Z,6.59
2018-09-25T07:24:47.810Z,6.61
2018-09-25T07:27:57.105Z,6.73
2018-09-25T07:31:06.437Z,6.82
2018-09-25T07:34:15.859Z,6.88
2018-09-25T07:37:25.371Z,7.00
2018-09-25T07:40:34.604Z,7.08
2018-09-25T07:43:43.978Z,7.15
2018-09-25T07:46:53.255Z,7.28
2018-09-25T07:50:02.783Z,7.40
2018-09-25T07:53:12.104Z,7.46
2018-09-25T07:56:21.525Z,7.54
2018-09-25T07:59:31.032Z,7.61
2018-09-25T08:02:40.335Z,7.71
2018-09-25T08:05:49.794Z,7.79
2018-09-25T08:08:59.041Z,7.89
2018-09-25T08:12:08.849Z,7.97
2018-09-25T08:15:18.306Z,8.06
2018-09-25T08:18:28.023Z,8.15
2018-09-25T08:21:37.380Z,8.23
2018-09-25T08:24:46.574Z,8.29
2018-09-25T08:27:56.178Z,8.38
2018-09-25T08:31:05.543Z,8.50
2018-09-25T08:34:15.041Z,8.59
2018-09-25T08:37:24.387Z,8.68
2018-09-25T08:40:33.749Z,8.77
2018-09-25T08:43:42.974Z,8.85
2018-09-25T08:46:52.214Z,8.96
2018-09-25T08:50:01.441Z,9.09
2018-09-25T08:53:10.777Z,9.14
2018-09-25T08:56:20.062Z,9.21
2018-09-25T08:59:29.590Z,9.34
2018-09-25T09:02:38.915Z,9.47
2018-09-25T09:05:48.174Z,9.56
2018-09-25T09:08:57.344Z,9.64
2018-09-25T09:12:06.599Z,9.77
2018-09-25T09:15:16.266Z,9.91
2018-09-25T09:18:25.628Z,10.05
2018-09-25T09:21:34.902Z,10.12
2018-09-25T09:24:44.134Z,10.13
2018-09-25T09:27:53.478Z,10.16
2018-09-25T09:31:02.612Z,10.24
2018-09-25T09:34:12.036Z,10.25
2018-09-25T09:37:21.279Z,10.27
2018-09-25T09:40:30.760Z,10.28
2018-09-25T09:43:40.164Z,10.31
2018-09-25T09:46:49.558Z,10.30
2018-09-25T09:49:58.934Z,10.30
2018-09-25T09:53:08.583Z,10.35
2018-09-25T09:56:17.784Z,10.37
2018-09-25T09:59:27.344Z,10.35
2018-09-25T10:02:36.558Z,10.39
2018-09-25T10:05:45.746Z,10.47
2018-09-25T10:08:55.131Z,10.48
2018-09-25T10:12:04.435Z,10.50
2018-09-25T10:15:13.774Z,10.53
2018-09-25T10:18:23.130Z,10.58
2018-09-25T10:21:32.348Z,10.64
2018-09-25T10:24:41.889Z,10.71
2018-09-25T10:27:51.107Z,10.71
2018-09-25T10:31:00.411Z,10.76
2018-09-25T10:34:09.980Z,10.80
2018-09-25T10:37:19.918Z,10.82
2018-09-25T10:40:29.164Z,10.89
2018-09-25T10:43:38.749Z,10.92
2018-09-25T10:46:48.429Z,10.93
2018-09-25T10:49:57.876Z,10.94
2018-09-25T10:53:07.317Z,10.98
2018-09-25T10:56:16.882Z,11.02
2018-09-25T10:59:26.220Z,11.08
2018-09-25T11:02:35.437Z,11.11
2018-09-25T11:05:44.667Z,11.10
2018-09-25T11:08:53.856Z,11.13
2018-09-25T11:12:03.494Z,11.18
2018-09-25T11:15:12.764Z,11.24
2018-09-25T11:18:22.245Z,11.37
2018-09-25T11:21:31.549Z,11.48
2018-09-25T11:24:40.791Z,11.50
2018-09-25T11:27:50.055Z,11.58
2018-09-25T11:30:59.291Z,11.56
2018-09-25T11:34:08.855Z,11.59
2018-09-25T11:37:18.314Z,11.67
2018-09-25T11:40:27.538Z,11.76
2018-09-25T11:43:36.837Z,11.82
2018-09-25T11:46:46.331Z,11.99
2018-09-25T11:49:55.880Z,11.99
2018-09-25T11:53:05.503Z,12.04
2018-09-25T11:56:14.772Z,12.05
2018-09-25T11:59:24.271Z,12.09
2018-09-25T12:02:33.548Z,12.14
2018-09-25T12:05:43.176Z,12.16
2018-09-25T12:08:52.435Z,12.28
2018-09-25T12:12:01.666Z,12.33
2018-09-25T12:15:10.987Z,12.37
2018-09-25T12:18:20.556Z,12.40
2018-09-25T12:21:29.760Z,12.51
2018-09-25T12:24:39.157Z,12.57
2018-09-25T12:27:48.339Z,12.57
2018-09-25T12:30:57.579Z,12.55
2018-09-25T12:34:06.917Z,12.55
2018-09-25T12:37:16.623Z,12.60
2018-09-25T12:40:26.183Z,12.68
2018-09-25T12:43:35.567Z,12.74
2018-09-25T12:46:44.918Z,12.80
2018-09-25T12:49:54.158Z,12.82
2018-09-25T12:53:03.560Z,12.91
2018-09-25T12:56:13.013Z,12.97
2018-09-25T12:59:22.247Z,13.00
2018-09-25T13:02:31.680Z,13.06
2018-09-25T13:05:41.444Z,13.08
2018-09-25T13:08:50.771Z,13.06
2018-09-25T13:12:00.103Z,13.05
2018-09-25T13:15:09.708Z,13.11
2018-09-25T13:18:19.075Z,13.10
2018-09-25T13:21:28.383Z,13.16
2018-09-25T13:24:37.714Z,13.21
2018-09-25T13:27:46.891Z,13.32
2018-09-25T13:30:56.335Z,13.35
2018-09-25T13:34:05.526Z,13.37
2018-09-25T13:37:14.755Z,13.45
2018-09-25T13:40:24.181Z,13.53
2018-09-25T13:43:33.522Z,13.61
2018-09-25T13:46:42.826Z,13.62
2018-09-25T13:49:52.363Z,13.61
2018-09-25T13:53:01.564Z,13.65
2018-09-25T13:56:11.200Z,13.76
2018-09-25T13:59:20.705Z,13.81
2018-09-25T14:02:29.829Z,13.84
2018-09-25T14:05:39.179Z,13.90
2018-09-25T14:08:48.910Z,14.00
2018-09-25T14:11:58.260Z,14.01
2018-09-25T14:15:07.584Z,14.07
2018-09-25T14:18:17.241Z,14.14
2018-09-25T14:21:26.755Z,14.16
2018-09-25T14:24:36.129Z,14.12
2018-09-25T14:27:45.591Z,14.10
2018-09-25T14:30:55.091Z,14.07
2018-09-25T14:34:04.335Z,14.10
2018-09-25T14:37:13.778Z,14.17
2018-09-25T14:40:23.134Z,14.16
2018-09-25T14:43:32.310Z,14.21
2018-09-25T14:46:41.594Z,14.21
2018-09-25T14:49:50.930Z,14.14
2018-09-25T14:53:00.140Z,14.15
2018-09-25T14:56:09.763Z,14.14
2018-09-25T14:59:18.999Z,14.12
2018-09-25T15:02:28.475Z,14.10
2018-09-25T15:05:37.738Z,14.07
2018-09-25T15:08:46.954Z,14.04
2018-09-25T15:11:56.174Z,14.03
2018-09-25T15:15:05.378Z,14.00
2018-09-25T15:18:14.782Z,13.96
2018-09-25T15:21:24.131Z,13.91
2018-09-25T15:24:33.592Z,13.92
2018-09-25T15:27:42.854Z,13.83
2018-09-25T15:30:52.286Z,13.82
2018-09-25T15:34:01.493Z,13.86
2018-09-25T15:37:10.739Z,13.83
2018-09-25T15:40:19.970Z,13.79
2018-09-25T15:43:29.142Z,13.79
2018-09-25T15:46:38.298Z,13.81
2018-09-25T15:49:47.734Z,13.76
2018-09-25T15:52:56.971Z,13.77
2018-09-25T15:56:06.165Z,13.82
2018-09-25T15:59:15.730Z,13.79
2018-09-25T16:02:25.066Z,13.76
2018-09-25T16:05:34.442Z,13.75
2018-09-25T16:08:43.653Z,13.72
2018-09-25T16:11:53.240Z,13.74
2018-09-25T16:15:02.579Z,13.71
2018-09-25T16:18:12.161Z,13.68
2018-09-25T16:21:21.559Z,13.58
2018-09-25T16:24:30.825Z,13.52
2018-09-25T16:27:40.154Z,13.45
2018-09-25T16:30:49.418Z,13.44
2018-09-25T16:33:58.594Z,13.35
2018-09-25T16:37:08.106Z,13.29
2018-09-25T16:40:17.339Z,13.20
2018-09-25T16:43:26.542Z,13.15
2018-09-25T16:46:35.795Z,13.06
2018-09-25T16:49:45.109Z,13.02
2018-09-25T16:52:54.511Z,12.97
2018-09-25T16:56:04.027Z,12.91
2018-09-25T16:59:13.314Z,12.87
2018-09-25T17:02:22.690Z,12.78
2018-09-25T17:05:31.942Z,12.74
2018-09-25T17:08:49.168Z,12.63
2018-09-25T17:11:58.704Z,12.57
2018-09-25T17:15:08.031Z,12.44
2018-09-25T17:18:17.386Z,12.40
2018-09-25T17:21:26.575Z,12.31
2018-09-25T17:24:35.783Z,12.16
2018-09-25T17:27:45.114Z,12.06
2018-09-25T17:30:54.642Z,11.99
2018-09-25T17:34:03.898Z,11.92
2018-09-25T17:37:13.327Z,11.86
2018-09-25T17:40:22.659Z,11.79
2018-09-25T17:43:32.017Z,11.74
2018-09-25T17:46:41.423Z,11.67
2018-09-25T17:49:50.645Z,11.60
2018-09-25T17:52:59.835Z,11.56
2018-09-25T17:56:09.059Z,11.49
2018-09-25T17:59:18.400Z,11.44
2018-09-25T18:02:27.954Z,11.40
2018-09-25T18:05:37.146Z,11.34
2018-09-25T18:08:46.359Z,11.29
2018-09-25T18:11:55.491Z,11.20
2018-09-25T18:15:04.726Z,11.15
2018-09-25T18:18:13.965Z,11.15
2018-09-25T18:21:23.142Z,11.12
2018-09-25T18:24:32.275Z,11.11
2018-09-25T18:27:41.656Z,11.07
2018-09-25T18:30:51.203Z,11.03
2018-09-25T18:34:00.398Z,11.02
2018-09-25T18:37:09.686Z,10.98
2018-09-25T18:40:19.087Z,10.95
2018-09-25T18:43:28.445Z,10.91
2018-09-25T18:46:38.133Z,10.88
2018-09-25T18:49:47.391Z,10.84
2018-09-25T18:52:56.720Z,10.82
2018-09-25T18:56:06.139Z,10.76
2018-09-25T18:59:15.798Z,10.73
2018-09-25T19:02:24.999Z,10.70
2018-09-25T19:05:34.147Z,10.70
2018-09-25T19:08:43.914Z,10.70
2018-09-25T19:11:53.227Z,10.71
2018-09-25T19:15:02.553Z,10.69
2018-09-25T19:18:11.949Z,10.68
2018-09-25T19:21:21.196Z,10.65
2018-09-25T19:24:30.600Z,10.61
2018-09-25T19:27:39.791Z,10.62
2018-09-25T19:30:49.277Z,10.63
2018-09-25T19:33:59.167Z,10.63
2018-09-25T19:37:08.754Z,10.57
2018-09-25T19:40:17.990Z,10.48
2018-09-25T19:43:27.352Z,10.54
2018-09-25T19:46:36.716Z,10.57
2018-09-25T19:49:46.378Z,10.63
2018-09-25T19:52:55.611Z,10.57
2018-09-25T19:56:04.951Z,10.53
2018-09-25T19:59:14.367Z,10.50
2018-09-25T20:02:23.645Z,10.56
2018-09-25T20:05:32.984Z,10.52
2018-09-25T20:08:42.616Z,10.48
2018-09-25T20:11:52.307Z,10.47
2018-09-25T20:15:01.667Z,10.43
2018-09-25T20:18:11.151Z,10.40
2018-09-25T20:21:20.536Z,10.39
2018-09-25T20:24:29.832Z,10.37
2018-09-25T20:27:39.483Z,10.35
2018-09-25T20:30:49.134Z,10.30
2018-09-25T20:33:58.665Z,10.30
2018-09-25T20:37:08.088Z,10.26
2018-09-25T20:40:17.256Z,10.16
2018-09-25T20:43:26.608Z,10.14
2018-09-25T20:46:35.928Z,10.10
2018-09-25T20:49:45.437Z,10.03
2018-09-25T20:52:54.635Z,9.96
2018-09-25T20:56:03.947Z,9.92
2018-09-25T20:59:13.236Z,9.91
2018-09-25T21:02:22.402Z,9.90
2018-09-25T21:05:31.849Z,9.93
2018-09-25T21:08:41.207Z,9.81
2018-09-25T21:11:50.473Z,9.84
2018-09-25T21:14:59.780Z,9.85
2018-09-25T21:18:09.319Z,9.84
2018-09-25T21:21:18.722Z,9.88
2018-09-25T21:24:28.077Z,9.86
2018-09-25T21:27:37.463Z,9.88
2018-09-25T21:30:46.769Z,9.90
2018-09-25T21:33:55.943Z,9.83
2018-09-25T21:37:05.210Z,9.81
2018-09-25T21:40:15.061Z,9.84
2018-09-25T21:43:24.680Z,9.84
2018-09-25T21:46:34.108Z,9.85
2018-09-25T21:49:43.303Z,9.84
2018-09-25T21:52:52.519Z,9.88
2018-09-25T21:56:01.876Z,9.87
2018-09-25T21:59:11.398Z,9.85
2018-09-25T22:02:20.724Z,9.90
2018-09-25T22:05:30.175Z,9.82
2018-09-25T22:08:39.566Z,9.84
2018-09-25T22:11:48.876Z,9.81
2018-09-25T22:14:58.407Z,9.81
2018-09-25T22:18:07.730Z,9.80
2018-09-25T22:21:17.129Z,9.84
2018-09-25T22:24:26.412Z,9.80
2018-09-25T22:27:35.786Z,9.72
2018-09-25T22:30:45.152Z,9.71
2018-09-25T22:33:54.408Z,9.73
2018-09-25T22:37:03.718Z,9.71
2018-09-25T22:40:12.931Z,9.71
2018-09-25T22:43:22.240Z,9.66
2018-09-25T22:46:31.599Z,9.66
2018-09-25T22:49:40.924Z,9.66
2018-09-25T22:52:50.198Z,9.63
2018-09-25T22:55:59.530Z,9.65
2018-09-25T22:59:08.791Z,9.63
2018-09-25T23:02:18.178Z,9.70
2018-09-25T23:05:27.633Z,9.66
2018-09-25T23:08:36.878Z,9.69
2018-09-25T23:11:46.235Z,9.71
2018-09-25T23:14:55.504Z,9.73
2018-09-25T23:18:05.007Z,9.64
2018-09-25T23:21:14.414Z,9.69
2018-09-25T23:24:23.679Z,9.65
2018-09-25T23:27:33.031Z,9.70
2018-09-25T23:30:42.365Z,9.63
2018-09-25T23:33:51.698Z,9.69
2018-09-25T23:37:00.932Z,9.72
2018-09-25T23:41:09.934Z,9.70
2018-09-25T23:45:20.792Z,9.74
2018-09-25T23:48:30.874Z,9.69
2018-09-25T23:51:38.334Z,9.72
2018-09-25T23:54:47.783Z,9.74
2018-09-25T23:57:59.627Z,9.71
